Time,TemperatureF,DewpointF,PressureIn,WindDirection,WindDirectionDegrees,WindSpeedMPH,WindSpeedGustMPH,Humidity,HourlyPrecipIn,Conditions,Clouds,dailyrainin,SolarRadiationWatts/m^2,SoftwareType,DateUTC
2013-01-09 00:02:00,43.0,17.0,29.99,NNW,332,13.0,18.0,34,-99.99,,,-99.99,0.000000,,2013-01-09 07:02:00,
2013-01-09 00:12:00,45.0,16.0,30.00,NNW,342,8.0,12.0,31,-99.99,,,-99.99,0.000000,,2013-01-09 07:12:00,
2013-01-09 00:22:00,45.0,16.0,30.00,NNW,342,8.0,12.0,31,-99.99,,,-99.99,0.000000,,2013-01-09 07:22:00,
2013-01-09 00:32:00,48.0,15.0,30.02,NNE,14,12.0,23.0,26,-99.99,,,-99.99,0.000000,,2013-01-09 07:32:00,
2013-01-09 00:42:00,49.0,14.0,30.03,NNE,20,15.0,24.0,24,-99.99,,,-99.99,0.000000,,2013-01-09 07:42:00,
2013-01-09 00:52:00,48.0,15.0,30.06,NE,51,17.0,26.0,25,-99.99,,,-99.99,0.000000,,2013-01-09 07:52:00,
2013-01-09 01:02:00,48.0,15.0,30.06,NE,51,17.0,26.0,25,-99.99,,,-99.99,0.000000,,2013-01-09 08:02:00,
2013-01-09 01:12:00,42.0,18.0,30.08,ESE,108,13.0,22.0,37,-99.99,,,-99.99,0.000000,,2013-01-09 08:12:00,
2013-01-09 01:22:00,42.0,18.0,30.08,ESE,108,13.0,22.0,37,-99.99,,,-99.99,0.000000,,2013-01-09 08:22:00,
2013-01-09 01:32:00,42.0,18.0,30.08,ENE,77,12.0,19.0,37,-99.99,,,-99.99,0.000000,,2013-01-09 08:32:00,
2013-01-09 01:42:00,43.0,18.0,30.09,East,82,11.0,16.0,36,-99.99,,,-99.99,0.000000,,2013-01-09 08:42:00,
2013-01-09 01:53:00,43.0,18.0,30.10,ENE,70,11.0,15.0,37,-99.99,,,-99.99,0.000000,,2013-01-09 08:53:00,
2013-01-09 02:02:00,43.0,18.0,30.10,ENE,70,11.0,15.0,37,-99.99,,,-99.99,0.000000,,2013-01-09 09:02:00,
2013-01-09 02:12:00,43.0,18.0,30.10,NE,46,11.0,15.0,37,-99.99,,,-99.99,0.000000,,2013-01-09 09:12:00,
2013-01-09 02:22:00,43.0,18.0,30.10,NE,46,11.0,15.0,37,-99.99,,,-99.99,0.000000,,2013-01-09 09:22:00,
2013-01-09 02:32:00,42.0,18.0,30.11,NE,46,11.0,16.0,36,-99.99,,,-99.99,0.000000,,2013-01-09 09:32:00,
2013-01-09 02:42:00,42.0,18.0,30.11,NE,35,12.0,17.0,36,-99.99,,,-99.99,0.000000,,2013-01-09 09:42:00,
2013-01-09 02:53:00,41.0,18.0,30.11,North,356,9.0,16.0,38,-99.99,,,-99.99,0.000000,,2013-01-09 09:53:00,
2013-01-09 03:02:00,41.0,18.0,30.11,North,356,9.0,16.0,38,-99.99,,,-99.99,0.000000,,2013-01-09 10:02:00,
2013-01-09 03:12:00,38.0,18.0,30.12,North,10,8.0,11.0,43,-99.99,,,-99.99,0.000000,,2013-01-09 10:12:00,
2013-01-09 03:22:00,38.0,18.0,30.12,North,10,8.0,11.0,43,-99.99,,,-99.99,0.000000,,2013-01-09 10:22:00,
2013-01-09 03:32:00,39.0,18.0,30.12,NE,36,12.0,18.0,42,-99.99,,,-99.99,0.000000,,2013-01-09 10:32:00,
2013-01-09 03:42:00,43.0,16.0,30.12,NNE,22,16.0,27.0,33,-99.99,,,-99.99,0.000000,,2013-01-09 10:42:00,
2013-01-09 03:52:00,43.0,16.0,30.12,NNE,22,16.0,27.0,33,-99.99,,,-99.99,0.000000,,2013-01-09 10:52:00,
2013-01-09 04:02:00,44.0,16.0,30.12,NNE,14,20.0,34.0,31,-99.99,,,-99.99,0.000000,,2013-01-09 11:02:00,
2013-01-09 04:12:00,44.0,16.0,30.12,NNE,13,20.0,28.0,31,-99.99,,,-99.99,0.000000,,2013-01-09 11:12:00,
2013-01-09 04:22:00,44.0,16.0,30.12,NNE,13,20.0,28.0,31,-99.99,,,-99.99,0.000000,,2013-01-09 11:22:00,
2013-01-09 04:32:00,44.0,16.0,30.12,North,10,21.0,28.0,32,-99.99,,,-99.99,0.000000,,2013-01-09 11:32:00,
2013-01-09 04:42:00,44.0,17.0,30.12,North,8,20.0,29.0,33,-99.99,,,-99.99,0.000000,,2013-01-09 11:42:00,
2013-01-09 04:53:00,44.0,17.0,30.12,North,8,20.0,29.0,33,-99.99,,,-99.99,0.000000,,2013-01-09 11:53:00,
2013-01-09 05:03:00,44.0,17.0,30.13,North,11,20.0,30.0,33,-99.99,,,-99.99,0.000000,,2013-01-09 12:03:00,
2013-01-09 05:12:00,44.0,18.0,30.14,NNE,16,20.0,29.0,34,-99.99,,,-99.99,0.000000,,2013-01-09 12:12:00,
2013-01-09 05:23:00,44.0,18.0,30.14,NNE,16,20.0,29.0,34,-99.99,,,-99.99,0.000000,,2013-01-09 12:23:00,
2013-01-09 05:33:00,44.0,19.0,30.14,North,8,21.0,29.0,35,-99.99,,,-99.99,0.000000,,2013-01-09 12:33:00,
2013-01-09 05:43:00,44.0,19.0,30.14,North,7,21.0,29.0,36,-99.99,,,-99.99,0.000000,,2013-01-09 12:43:00,
2013-01-09 05:53:00,44.0,19.0,30.14,North,7,21.0,29.0,36,-99.99,,,-99.99,0.000000,,2013-01-09 12:53:00,
2013-01-09 06:02:00,44.0,19.0,30.16,North,8,18.0,26.0,37,-99.99,,,-99.99,0.000000,,2013-01-09 13:02:00,
2013-01-09 06:12:00,43.0,20.0,30.17,North,11,19.0,26.0,38,-99.99,,,-99.99,0.000000,,2013-01-09 13:12:00,
2013-01-09 06:23:00,43.0,20.0,30.17,North,11,19.0,26.0,38,-99.99,,,-99.99,0.000000,,2013-01-09 13:23:00,
2013-01-09 06:33:00,43.0,20.0,30.19,NNE,14,17.0,24.0,38,-99.99,,,-99.99,0.000000,,2013-01-09 13:33:00,
2013-01-09 06:43:00,43.0,20.0,30.21,NNE,24,14.0,22.0,40,-99.99,,,-99.99,0.000000,,2013-01-09 13:43:00,
2013-01-09 06:53:00,43.0,20.0,30.21,NNE,24,14.0,22.0,40,-99.99,,,-99.99,0.000000,,2013-01-09 13:53:00,
2013-01-09 07:03:00,42.0,21.0,30.22,NNE,30,11.0,16.0,41,-99.99,,,-99.99,0.000000,,2013-01-09 14:03:00,
2013-01-09 07:12:00,42.0,21.0,30.23,NE,41,9.0,14.0,42,-99.99,,,-99.99,0.000000,,2013-01-09 14:12:00,
2013-01-09 07:22:00,42.0,21.0,30.23,NE,41,9.0,14.0,42,-99.99,,,-99.99,0.000000,,2013-01-09 14:22:00,
2013-01-09 07:33:00,41.0,21.0,30.24,NE,35,10.0,16.0,44,-99.99,,,-99.99,0.700000,,2013-01-09 14:33:00,
2013-01-09 07:43:00,41.0,21.0,30.24,NNE,15,14.0,20.0,43,-99.99,,,-99.99,2.790000,,2013-01-09 14:43:00,
2013-01-09 07:53:00,41.0,21.0,30.24,NNE,15,14.0,20.0,43,-99.99,,,-99.99,2.790000,,2013-01-09 14:53:00,
2013-01-09 08:03:00,41.0,21.0,30.24,NNE,15,14.0,20.0,43,-99.99,,,-99.99,2.790000,,2013-01-09 15:03:00,
2013-01-09 08:12:00,42.0,21.0,30.25,North,6,14.0,20.0,43,-99.99,,,-99.99,46.720001,,2013-01-09 15:12:00,
2013-01-09 08:23:00,42.0,21.0,30.25,North,6,14.0,20.0,43,-99.99,,,-99.99,46.720001,,2013-01-09 15:23:00,
2013-01-09 08:33:00,42.0,21.0,30.25,North,2,14.0,19.0,42,-99.99,,,-99.99,40.450001,,2013-01-09 15:33:00,
2013-01-09 08:42:00,43.0,21.0,30.25,North,356,15.0,21.0,41,-99.99,,,-99.99,117.150002,,2013-01-09 15:42:00,
2013-01-09 08:53:00,43.0,21.0,30.25,North,356,15.0,21.0,41,-99.99,,,-99.99,117.150002,,2013-01-09 15:53:00,
2013-01-09 09:03:00,44.0,21.0,30.26,North,4,16.0,22.0,38,-99.99,,,-99.99,232.210007,,2013-01-09 16:03:00,
2013-01-09 09:12:00,45.0,21.0,30.26,NNE,14,19.0,25.0,38,-99.99,,,-99.99,275.450012,,2013-01-09 16:12:00,
2013-01-09 09:23:00,45.0,21.0,30.26,NNE,14,19.0,25.0,38,-99.99,,,-99.99,275.450012,,2013-01-09 16:23:00,
2013-01-09 09:33:00,45.0,21.0,30.26,NNE,14,19.0,27.0,38,-99.99,,,-99.99,320.769989,,2013-01-09 16:33:00,
2013-01-09 09:43:00,46.0,21.0,30.27,NNE,15,19.0,25.0,37,-99.99,,,-99.99,367.489990,,2013-01-09 16:43:00,
2013-01-09 09:53:00,46.0,21.0,30.27,NNE,15,19.0,25.0,37,-99.99,,,-99.99,367.489990,,2013-01-09 16:53:00,
2013-01-09 10:02:00,46.0,21.0,30.27,NNE,15,19.0,25.0,37,-99.99,,,-99.99,367.489990,,2013-01-09 17:02:00,
2013-01-09 10:12:00,47.0,22.0,30.27,NNE,13,21.0,27.0,35,-99.99,,,-99.99,436.529999,,2013-01-09 17:12:00,
2013-01-09 10:23:00,47.0,22.0,30.27,NNE,13,21.0,27.0,35,-99.99,,,-99.99,436.529999,,2013-01-09 17:23:00,
2013-01-09 10:33:00,48.0,22.0,30.26,North,9,21.0,27.0,35,-99.99,,,-99.99,437.929993,,2013-01-09 17:33:00,
2013-01-09 10:43:00,49.0,22.0,30.26,North,8,21.0,29.0,34,-99.99,,,-99.99,454.660004,,2013-01-09 17:43:00,
2013-01-09 10:53:00,49.0,22.0,30.26,North,8,21.0,29.0,34,-99.99,,,-99.99,454.660004,,2013-01-09 17:53:00,
2013-01-09 11:03:00,49.0,22.0,30.26,North,8,21.0,29.0,34,-99.99,,,-99.99,454.660004,,2013-01-09 18:03:00,
2013-01-09 11:12:00,51.0,22.0,30.25,NNE,15,21.0,27.0,32,-99.99,,,-99.99,558.559998,,2013-01-09 18:12:00,
2013-01-09 11:24:00,51.0,22.0,30.25,NNE,15,21.0,27.0,32,-99.99,,,-99.99,558.559998,,2013-01-09 18:24:00,
2013-01-09 11:33:00,51.0,22.0,30.24,North,9,22.0,27.0,31,-99.99,,,-99.99,535.549988,,2013-01-09 18:33:00,
2013-01-09 11:43:00,52.0,21.0,30.23,North,8,19.0,27.0,30,-99.99,,,-99.99,543.919983,,2013-01-09 18:43:00,
2013-01-09 11:53:00,52.0,21.0,30.23,North,8,19.0,27.0,30,-99.99,,,-99.99,543.919983,,2013-01-09 18:53:00,
2013-01-09 12:03:00,52.0,20.0,30.23,NNE,14,19.0,27.0,27,-99.99,,,-99.99,581.580017,,2013-01-09 19:03:00,
2013-01-09 12:12:00,53.0,19.0,30.22,NNE,20,19.0,26.0,26,-99.99,,,-99.99,601.099976,,2013-01-09 19:12:00,
2013-01-09 12:22:00,53.0,19.0,30.22,NNE,20,19.0,26.0,26,-99.99,,,-99.99,601.099976,,2013-01-09 19:22:00,
2013-01-09 12:33:00,53.0,19.0,30.22,NNE,20,19.0,26.0,26,-99.99,,,-99.99,601.099976,,2013-01-09 19:33:00,
2013-01-09 12:43:00,53.0,19.0,30.22,NNE,20,19.0,26.0,26,-99.99,,,-99.99,601.099976,,2013-01-09 19:43:00,
2013-01-09 13:03:00,55.0,19.0,30.18,NNE,22,18.0,25.0,24,-99.99,,,-99.99,574.599976,,2013-01-09 20:03:00,
2013-01-09 13:12:00,54.0,20.0,30.17,NNE,23,17.0,25.0,25,-99.99,,,-99.99,449.079987,,2013-01-09 20:12:00,
2013-01-09 13:23:00,54.0,20.0,30.17,NNE,23,17.0,25.0,25,-99.99,,,-99.99,449.079987,,2013-01-09 20:23:00,
2013-01-09 13:33:00,55.0,21.0,30.16,NNE,17,18.0,26.0,25,-99.99,,,-99.99,555.770020,,2013-01-09 20:33:00,
2013-01-09 13:42:00,56.0,22.0,30.15,NNE,26,17.0,23.0,25,-99.99,,,-99.99,585.760010,,2013-01-09 20:42:00,
2013-01-09 13:53:00,56.0,22.0,30.15,NNE,26,17.0,23.0,25,-99.99,,,-99.99,585.760010,,2013-01-09 20:53:00,
2013-01-09 14:03:00,57.0,22.0,30.15,NNE,13,17.0,24.0,25,-99.99,,,-99.99,598.309998,,2013-01-09 21:03:00,
2013-01-09 14:13:00,56.0,23.0,30.14,NNE,19,16.0,23.0,26,-99.99,,,-99.99,516.719971,,2013-01-09 21:13:00,
2013-01-09 14:23:00,56.0,23.0,30.14,NNE,19,16.0,23.0,26,-99.99,,,-99.99,516.719971,,2013-01-09 21:23:00,
2013-01-09 14:33:00,57.0,23.0,30.14,NNE,12,16.0,22.0,26,-99.99,,,-99.99,504.170013,,2013-01-09 21:33:00,
2013-01-09 14:43:00,57.0,23.0,30.14,North,1,16.0,23.0,26,-99.99,,,-99.99,502.779999,,2013-01-09 21:43:00,
2013-01-09 14:53:00,57.0,23.0,30.14,North,1,16.0,23.0,26,-99.99,,,-99.99,502.779999,,2013-01-09 21:53:00,
2013-01-09 15:03:00,57.0,23.0,30.14,North,1,16.0,23.0,26,-99.99,,,-99.99,502.779999,,2013-01-09 22:03:00,
2013-01-09 15:12:00,57.0,25.0,30.13,NNE,15,14.0,22.0,28,-99.99,,,-99.99,439.320007,,2013-01-09 22:12:00,
2013-01-09 15:23:00,57.0,25.0,30.13,NNE,15,14.0,22.0,28,-99.99,,,-99.99,439.320007,,2013-01-09 22:23:00,
2013-01-09 15:33:00,57.0,25.0,30.12,North,11,14.0,22.0,29,-99.99,,,-99.99,403.760010,,2013-01-09 22:33:00,
2013-01-09 15:43:00,57.0,26.0,30.12,North,9,14.0,21.0,29,-99.99,,,-99.99,366.100006,,2013-01-09 22:43:00,
2013-01-09 15:52:00,57.0,26.0,30.12,North,9,14.0,21.0,29,-99.99,,,-99.99,366.100006,,2013-01-09 22:52:00,
2013-01-09 16:02:00,58.0,26.0,30.12,North,351,14.0,22.0,28,-99.99,,,-99.99,325.649994,,2013-01-09 23:02:00,
2013-01-09 16:13:00,58.0,26.0,30.12,North,354,13.0,19.0,29,-99.99,,,-99.99,283.809998,,2013-01-09 23:13:00,
2013-01-09 16:22:00,58.0,26.0,30.12,North,354,13.0,19.0,29,-99.99,,,-99.99,283.809998,,2013-01-09 23:22:00,
2013-01-09 16:33:00,58.0,26.0,30.11,North,358,13.0,18.0,28,-99.99,,,-99.99,239.880005,,2013-01-09 23:33:00,
2013-01-09 16:43:00,58.0,25.0,30.10,NNW,347,14.0,19.0,28,-99.99,,,-99.99,195.949997,,2013-01-09 23:43:00,
2013-01-09 16:53:00,58.0,25.0,30.10,NNW,347,14.0,19.0,28,-99.99,,,-99.99,195.949997,,2013-01-09 23:53:00,
2013-01-09 17:03:00,57.0,25.0,30.10,North,351,16.0,20.0,28,-99.99,,,-99.99,153.410004,,2013-01-10 00:03:00,
2013-01-09 17:12:00,57.0,24.0,30.10,North,2,14.0,20.0,28,-99.99,,,-99.99,109.480003,,2013-01-10 00:12:00,
2013-01-09 17:22:00,57.0,24.0,30.10,North,2,14.0,20.0,28,-99.99,,,-99.99,109.480003,,2013-01-10 00:22:00,
2013-01-09 17:32:00,56.0,24.0,30.10,North,0,12.0,16.0,28,-99.99,,,-99.99,58.580002,,2013-01-10 00:32:00,
2013-01-09 17:42:00,54.0,24.0,30.10,NNW,339,8.0,11.0,30,-99.99,,,-99.99,9.760000,,2013-01-10 00:42:00,
2013-01-09 17:53:00,54.0,24.0,30.10,NNW,339,8.0,11.0,30,-99.99,,,-99.99,9.760000,,2013-01-10 00:53:00,
2013-01-09 18:02:00,53.0,24.0,30.10,NW,321,8.0,10.0,31,-99.99,,,-99.99,2.790000,,2013-01-10 01:02:00,
2013-01-09 18:12:00,52.0,23.0,30.10,NNW,328,8.0,10.0,32,-99.99,,,-99.99,0.000000,,2013-01-10 01:12:00,
2013-01-09 18:22:00,52.0,23.0,30.10,NNW,328,8.0,10.0,32,-99.99,,,-99.99,0.000000,,2013-01-10 01:22:00,
2013-01-09 18:33:00,51.0,23.0,30.10,NW,322,7.0,10.0,32,-99.99,,,-99.99,0.000000,,2013-01-10 01:33:00,
2013-01-09 18:43:00,49.0,23.0,30.10,NW,314,7.0,9.0,36,-99.99,,,-99.99,0.000000,,2013-01-10 01:43:00,
2013-01-09 18:53:00,49.0,23.0,30.10,NW,314,7.0,9.0,36,-99.99,,,-99.99,0.000000,,2013-01-10 01:53:00,
2013-01-09 19:03:00,49.0,24.0,30.10,WNW,298,9.0,12.0,36,-99.99,,,-99.99,0.000000,,2013-01-10 02:03:00,
2013-01-09 19:12:00,49.0,23.0,30.10,NW,308,8.0,11.0,35,-99.99,,,-99.99,0.000000,,2013-01-10 02:12:00,
2013-01-09 19:22:00,49.0,23.0,30.10,NW,308,8.0,11.0,35,-99.99,,,-99.99,0.000000,,2013-01-10 02:22:00,
2013-01-09 19:32:00,48.0,22.0,30.11,NW,312,9.0,11.0,36,-99.99,,,-99.99,0.000000,,2013-01-10 02:32:00,
2013-01-09 19:42:00,48.0,22.0,30.11,NW,312,9.0,11.0,36,-99.99,,,-99.99,0.000000,,2013-01-10 02:42:00,
2013-01-09 19:52:00,48.0,22.0,30.11,NW,312,9.0,11.0,36,-99.99,,,-99.99,0.000000,,2013-01-10 02:52:00,
2013-01-09 20:02:00,46.0,22.0,30.11,NW,317,6.0,8.0,38,-99.99,,,-99.99,0.000000,,2013-01-10 03:02:00,
2013-01-09 20:12:00,48.0,21.0,30.11,NNW,338,9.0,14.0,34,-99.99,,,-99.99,0.000000,,2013-01-10 03:12:00,
2013-01-09 20:22:00,48.0,21.0,30.11,NNW,338,9.0,14.0,34,-99.99,,,-99.99,0.000000,,2013-01-10 03:22:00,
2013-01-09 20:33:00,48.0,21.0,30.11,NNW,342,7.0,10.0,33,-99.99,,,-99.99,0.000000,,2013-01-10 03:33:00,
2013-01-09 20:42:00,48.0,21.0,30.11,NNW,328,6.0,9.0,34,-99.99,,,-99.99,0.000000,,2013-01-10 03:42:00,
2013-01-09 20:53:00,48.0,21.0,30.11,NNW,328,6.0,9.0,34,-99.99,,,-99.99,0.000000,,2013-01-10 03:53:00,
2013-01-09 21:02:00,48.0,21.0,30.11,NNW,339,7.0,11.0,33,-99.99,,,-99.99,0.000000,,2013-01-10 04:02:00,
2013-01-09 21:12:00,48.0,20.0,30.11,NW,326,8.0,10.0,33,-99.99,,,-99.99,0.000000,,2013-01-10 04:12:00,
2013-01-09 21:22:00,48.0,20.0,30.11,NW,326,8.0,10.0,33,-99.99,,,-99.99,0.000000,,2013-01-10 04:22:00,
2013-01-09 21:32:00,47.0,20.0,30.10,NW,319,7.0,10.0,34,-99.99,,,-99.99,0.000000,,2013-01-10 04:32:00,
2013-01-09 21:42:00,47.0,20.0,30.10,NNW,342,7.0,10.0,33,-99.99,,,-99.99,0.000000,,2013-01-10 04:42:00,
2013-01-09 21:52:00,47.0,20.0,30.10,NNW,342,7.0,10.0,33,-99.99,,,-99.99,0.000000,,2013-01-10 04:52:00,
2013-01-09 22:03:00,46.0,20.0,30.09,NW,323,7.0,9.0,36,-99.99,,,-99.99,0.000000,,2013-01-10 05:03:00,
2013-01-09 22:12:00,45.0,21.0,30.09,NW,310,10.0,15.0,37,-99.99,,,-99.99,0.000000,,2013-01-10 05:12:00,
2013-01-09 22:22:00,45.0,21.0,30.09,NW,310,10.0,15.0,37,-99.99,,,-99.99,0.000000,,2013-01-10 05:22:00,
2013-01-09 22:33:00,48.0,20.0,30.09,NW,325,8.0,12.0,32,-99.99,,,-99.99,0.000000,,2013-01-10 05:33:00,
2013-01-09 22:42:00,47.0,19.0,30.09,WNW,303,7.0,10.0,32,-99.99,,,-99.99,0.000000,,2013-01-10 05:42:00,
2013-01-09 22:53:00,47.0,19.0,30.09,WNW,303,7.0,10.0,32,-99.99,,,-99.99,0.000000,,2013-01-10 05:53:00,
2013-01-09 23:02:00,46.0,20.0,30.09,NW,323,8.0,10.0,34,-99.99,,,-99.99,0.000000,,2013-01-10 06:02:00,
2013-01-09 23:12:00,44.0,20.0,30.09,NNW,346,6.0,9.0,37,-99.99,,,-99.99,0.000000,,2013-01-10 06:12:00,
2013-01-09 23:22:00,44.0,20.0,30.09,NNW,346,6.0,9.0,37,-99.99,,,-99.99,0.000000,,2013-01-10 06:22:00,
2013-01-09 23:32:00,44.0,20.0,30.08,NNW,341,4.0,6.0,38,-99.99,,,-99.99,0.000000,,2013-01-10 06:32:00,
2013-01-09 23:42:00,43.0,20.0,30.08,North,6,3.0,7.0,38,-99.99,,,-99.99,0.000000,,2013-01-10 06:42:00,
2013-01-09 23:52:00,43.0,20.0,30.08,North,6,3.0,7.0,38,-99.99,,,-99.99,0.000000,,2013-01-10 06:52:00,